createdAt,value
2022-12-07T00:02:13.068Z,12.13
2022-12-07T00:05:00.287Z,11.87
2022-12-07T00:07:48.145Z,14.10
2022-12-07T00:10:35.279Z,11.83
2022-12-07T00:13:22.176Z,13.23
2022-12-07T00:16:10.760Z,14.50
2022-12-07T00:18:58.152Z,13.57
2022-12-07T00:21:45.035Z,12.27
2022-12-07T00:24:32.524Z,12.73
2022-12-07T00:27:19.388Z,13.50
2022-12-07T00:30:07.585Z,12.50
2022-12-07T00:32:54.456Z,14.03
2022-12-07T00:35:41.324Z,16.63
2022-12-07T00:38:29.896Z,14.60
2022-12-07T00:41:19.439Z,15.23
2022-12-07T00:44:06.360Z,13.23
2022-12-07T00:46:53.290Z,12.50
2022-12-07T00:49:43.258Z,15.03
2022-12-07T00:52:30.213Z,12.80
2022-12-07T00:55:17.191Z,14.60
2022-12-07T00:58:04.870Z,14.70
2022-12-07T01:00:51.726Z,12.80
2022-12-07T01:03:38.959Z,12.73
2022-12-07T01:06:26.376Z,13.20
2022-12-07T01:09:13.250Z,12.00
2022-12-07T01:12:00.129Z,11.33
2022-12-07T01:14:47.763Z,13.23
2022-12-07T01:17:35.082Z,13.57
2022-12-07T01:20:22.275Z,12.67
2022-12-07T01:23:09.147Z,14.10
2022-12-07T01:25:56.963Z,12.70
2022-12-07T01:28:43.946Z,13.03
2022-12-07T01:31:31.825Z,13.70
2022-12-07T01:34:18.683Z,11.87
2022-12-07T01:37:05.532Z,13.20
2022-12-07T01:39:52.807Z,12.87
2022-12-07T01:42:39.680Z,14.13
2022-12-07T01:45:39.607Z,12.17
2022-12-07T01:48:30.625Z,12.77
2022-12-07T01:51:17.588Z,13.00
2022-12-07T01:54:04.562Z,13.67
2022-12-07T01:56:55.412Z,13.30
2022-12-07T01:59:45.100Z,15.67
2022-12-07T02:02:35.475Z,13.47
2022-12-07T02:05:24.664Z,17.13
2022-12-07T02:08:12.598Z,16.00
2022-12-07T02:11:00.394Z,12.90
2022-12-07T02:13:47.861Z,12.20
2022-12-07T02:16:43.445Z,13.07
2022-12-07T02:20:10.455Z,12.00
2022-12-07T02:23:34.660Z,12.07
2022-12-07T02:26:48.561Z,12.47
2022-12-07T02:29:40.429Z,13.73
2022-12-07T02:32:37.270Z,12.93
2022-12-07T02:35:28.882Z,15.37
2022-12-07T02:38:20.553Z,13.40
2022-12-07T02:41:12.926Z,13.67
2022-12-07T02:44:02.914Z,13.77
2022-12-07T02:46:54.338Z,13.67
2022-12-07T02:49:42.442Z,13.10
2022-12-07T02:52:29.346Z,13.57
2022-12-07T02:55:20.194Z,13.03
2022-12-07T02:58:18.130Z,12.23
2022-12-07T03:01:12.128Z,13.77
2022-12-07T03:04:09.595Z,14.50
2022-12-07T03:07:00.690Z,13.77
2022-12-07T03:09:53.967Z,14.30
2022-12-07T03:12:49.194Z,12.67
2022-12-07T03:15:40.984Z,13.53
2022-12-07T03:18:31.791Z,14.37
2022-12-07T03:21:23.662Z,14.13
2022-12-07T03:24:15.021Z,12.53
2022-12-07T03:27:07.411Z,11.47
2022-12-07T03:30:00.278Z,12.40
2022-12-07T03:32:53.173Z,11.77
2022-12-07T03:35:44.429Z,12.27
2022-12-07T03:38:38.462Z,12.90
2022-12-07T03:41:29.567Z,12.97
2022-12-07T03:44:17.382Z,16.63
2022-12-07T03:47:11.002Z,17.00
2022-12-07T03:50:03.348Z,13.87
2022-12-07T03:52:57.174Z,12.80
2022-12-07T03:55:47.690Z,16.07
2022-12-07T03:58:35.869Z,16.83
2022-12-07T04:01:24.072Z,13.00
2022-12-07T04:04:11.302Z,13.67
2022-12-07T04:06:58.250Z,13.70
2022-12-07T04:09:45.230Z,11.83
2022-12-07T04:12:32.760Z,14.87
2022-12-07T04:15:19.683Z,14.80
2022-12-07T04:18:07.192Z,14.80
2022-12-07T04:20:54.062Z,13.90
2022-12-07T04:23:41.217Z,15.33
2022-12-07T04:26:28.079Z,13.20
2022-12-07T04:29:17.006Z,14.07
2022-12-07T04:32:03.974Z,12.97
2022-12-07T04:34:55.320Z,16.17
2022-12-07T04:37:42.607Z,12.93
2022-12-07T04:40:29.451Z,11.43
2022-12-07T04:43:16.311Z,11.93
2022-12-07T04:46:23.352Z,13.80
2022-12-07T04:49:10.715Z,10.03
2022-12-07T04:51:57.696Z,12.67
2022-12-07T04:54:45.600Z,12.27
2022-12-07T04:57:32.492Z,14.00
2022-12-07T05:00:19.973Z,13.13
2022-12-07T05:03:07.813Z,10.57
2022-12-07T05:05:54.681Z,15.47
2022-12-07T05:08:43.048Z,9.83
2022-12-07T05:11:39.734Z,13.50
2022-12-07T05:14:26.925Z,10.30
2022-12-07T05:17:14.377Z,10.87
2022-12-07T05:20:02.328Z,13.40
2022-12-07T05:22:49.550Z,12.00
2022-12-07T05:25:36.736Z,9.83
2022-12-07T05:28:23.649Z,9.87
2022-12-07T05:31:10.714Z,9.70
2022-12-07T05:33:58.125Z,10.70
2022-12-07T05:36:45.625Z,9.93
2022-12-07T05:39:32.555Z,10.80
2022-12-07T05:42:19.526Z,9.77
2022-12-07T05:45:07.794Z,12.87
2022-12-07T05:47:54.719Z,12.87
2022-12-07T05:50:42.203Z,11.37
2022-12-07T05:53:29.746Z,9.97
2022-12-07T05:56:16.778Z,11.97
2022-12-07T05:59:22.749Z,10.17
2022-12-07T06:02:11.665Z,12.23
2022-12-07T06:04:58.653Z,12.67
2022-12-07T06:07:45.658Z,10.13
2022-12-07T06:10:33.294Z,9.57
2022-12-07T06:13:19.890Z,10.13
2022-12-07T06:16:07.538Z,8.23
2022-12-07T06:18:54.503Z,10.50
2022-12-07T06:21:41.951Z,8.17
2022-12-07T06:24:28.832Z,8.40
2022-12-07T06:27:16.352Z,9.90
2022-12-07T06:30:06.576Z,8.13
2022-12-07T06:32:53.768Z,6.90
2022-12-07T06:35:40.668Z,8.83
2022-12-07T06:38:27.578Z,10.53
2022-12-07T06:41:14.488Z,9.57
2022-12-07T06:44:01.980Z,9.73
2022-12-07T06:46:49.408Z,9.47
2022-12-07T06:49:36.316Z,10.10
2022-12-07T06:52:23.412Z,7.57
2022-12-07T06:55:10.332Z,7.23
2022-12-07T06:57:58.079Z,8.57
2022-12-07T07:00:45.886Z,10.97
2022-12-07T07:03:32.800Z,9.93
2022-12-07T07:06:19.704Z,9.60
2022-12-07T07:09:06.698Z,6.93
2022-12-07T07:11:53.676Z,11.10
2022-12-07T07:14:40.568Z,6.27
2022-12-07T07:17:28.439Z,7.80
2022-12-07T07:20:15.563Z,6.20
2022-12-07T07:23:02.513Z,7.07
2022-12-07T07:25:49.446Z,11.07
2022-12-07T07:28:36.854Z,6.97
2022-12-07T07:31:23.832Z,7.80
2022-12-07T07:34:11.348Z,8.50
2022-12-07T07:36:58.524Z,7.47
2022-12-07T07:39:45.388Z,5.83
2022-12-07T07:42:32.284Z,6.70
2022-12-07T07:45:19.660Z,6.80
2022-12-07T07:48:06.858Z,7.03
2022-12-07T07:50:54.398Z,8.57
2022-12-07T07:53:41.274Z,6.30
2022-12-07T07:56:28.853Z,8.30
2022-12-07T07:59:16.781Z,9.23
2022-12-07T08:02:03.657Z,8.47
2022-12-07T08:04:50.629Z,8.67
2022-12-07T08:07:38.309Z,8.77
2022-12-07T08:10:25.607Z,6.57
2022-12-07T08:13:13.679Z,11.10
2022-12-07T08:16:04.959Z,12.00
2022-12-07T08:18:51.913Z,7.33
2022-12-07T08:21:39.313Z,8.83
2022-12-07T08:24:27.031Z,10.80
2022-12-07T08:27:13.899Z,8.63
2022-12-07T08:30:01.317Z,7.93
2022-12-07T08:32:48.926Z,9.43
2022-12-07T08:35:35.832Z,9.20
2022-12-07T08:38:26.130Z,11.87
2022-12-07T08:41:16.383Z,8.97
2022-12-07T08:44:03.476Z,10.80
2022-12-07T08:46:54.530Z,10.37
2022-12-07T08:49:44.401Z,12.40
2022-12-07T08:52:32.087Z,10.77
2022-12-07T08:55:20.047Z,12.90
2022-12-07T08:58:07.572Z,9.87
2022-12-07T09:00:54.461Z,12.00
2022-12-07T09:03:41.385Z,11.63
2022-12-07T09:06:28.662Z,11.80
2022-12-07T09:09:15.824Z,11.53
2022-12-07T09:12:03.077Z,12.97
2022-12-07T09:14:50.583Z,9.20
2022-12-07T09:17:37.765Z,12.30
2022-12-07T09:20:27.763Z,9.30
2022-12-07T09:23:15.268Z,8.43
2022-12-07T09:26:07.400Z,11.43
2022-12-07T09:28:57.218Z,12.73
2022-12-07T09:31:44.759Z,15.10
2022-12-07T09:34:32.094Z,8.80
2022-12-07T09:37:19.179Z,11.27
2022-12-07T09:40:07.939Z,9.13
2022-12-07T09:42:56.231Z,11.27
2022-12-07T10:00:35.650Z,6.87
2022-12-07T10:03:22.549Z,7.23
2022-12-07T10:10:38.810Z,7.10
2022-12-07T10:19:53.581Z,7.47
2022-12-07T10:27:29.621Z,6.03
2022-12-07T10:30:21.906Z,5.53
2022-12-07T10:33:28.592Z,4.30
2022-12-07T10:41:23.105Z,5.73
2022-12-07T10:50:49.237Z,4.57
2022-12-07T10:54:11.588Z,6.57
2022-12-07T10:57:09.296Z,4.40
2022-12-07T11:00:10.679Z,4.70
2022-12-07T11:03:39.329Z,6.67
2022-12-07T11:06:35.237Z,8.40
2022-12-07T11:10:08.290Z,7.43
2022-12-07T11:13:10.463Z,5.77
2022-12-07T11:16:06.820Z,5.47
2022-12-07T11:19:06.220Z,9.30
2022-12-07T11:21:57.851Z,4.40
2022-12-07T11:24:50.462Z,5.47
2022-12-07T11:27:44.467Z,6.33
2022-12-07T11:30:40.059Z,6.23
2022-12-07T11:33:34.705Z,4.53
2022-12-07T11:36:36.857Z,5.77
2022-12-07T11:39:29.202Z,6.30
2022-12-07T11:42:22.037Z,6.30
2022-12-07T11:45:15.724Z,7.03
2022-12-07T11:48:07.665Z,5.43
2022-12-07T11:50:59.004Z,7.33
2022-12-07T11:53:55.126Z,6.97
2022-12-07T11:56:42.914Z,4.97
2022-12-07T11:59:37.123Z,4.27
2022-12-07T12:02:29.251Z,5.27
2022-12-07T12:05:21.086Z,5.33
2022-12-07T12:11:40.413Z,6.20
2022-12-07T12:14:46.814Z,5.17
2022-12-07T12:17:57.003Z,4.20
2022-12-07T12:20:49.648Z,3.90
2022-12-07T12:23:41.914Z,3.43
2022-12-07T12:26:32.288Z,3.53
2022-12-07T12:29:24.067Z,7.37
2022-12-07T12:32:21.296Z,6.70
2022-12-07T12:35:31.475Z,5.17
2022-12-07T12:38:29.885Z,4.63
2022-12-07T12:42:08.580Z,4.93
2022-12-07T12:45:20.882Z,3.87
2022-12-07T12:48:29.272Z,4.00
2022-12-07T12:51:37.924Z,5.07
2022-12-07T12:54:27.687Z,5.13
2022-12-07T12:57:22.814Z,5.27
2022-12-07T13:00:18.548Z,4.43
2022-12-07T13:03:08.849Z,6.23
2022-12-07T13:06:20.077Z,5.37
2022-12-07T13:09:21.653Z,3.53
2022-12-07T13:12:14.745Z,4.83
2022-12-07T13:15:03.585Z,5.83
2022-12-07T13:18:03.439Z,2.57
2022-12-07T13:20:53.855Z,4.30
2022-12-07T13:23:56.103Z,4.60
2022-12-07T13:26:44.572Z,3.90
2022-12-07T13:29:37.175Z,3.83
2022-12-07T13:32:25.417Z,4.20
2022-12-07T13:35:33.785Z,4.63
2022-12-07T13:38:27.526Z,3.73
2022-12-07T13:41:16.435Z,9.17
2022-12-07T13:44:08.928Z,5.13
2022-12-07T13:47:05.019Z,5.97
2022-12-07T13:49:54.335Z,6.70
2022-12-07T13:52:44.862Z,5.07
2022-12-07T13:55:31.819Z,4.90
2022-12-07T13:58:18.787Z,6.77
2022-12-07T14:01:06.242Z,7.33
2022-12-07T14:04:31.672Z,3.17
2022-12-07T14:07:24.960Z,4.80
2022-12-07T14:10:25.388Z,4.67
2022-12-07T14:13:31.273Z,5.20
2022-12-07T14:16:25.048Z,3.77
2022-12-07T14:19:47.993Z,5.33
2022-12-07T14:22:37.144Z,7.13
2022-12-07T14:25:26.666Z,3.63
2022-12-07T14:28:26.920Z,6.87
2022-12-07T14:31:22.864Z,8.07
2022-12-07T14:34:13.567Z,4.70
2022-12-07T14:37:01.072Z,8.67
2022-12-07T14:39:47.952Z,4.10
2022-12-07T14:42:35.807Z,8.17
2022-12-07T14:45:23.788Z,5.63
2022-12-07T14:54:30.666Z,4.17
2022-12-07T14:57:17.750Z,3.27
2022-12-07T15:00:06.030Z,3.20
2022-12-07T15:02:53.531Z,6.23
2022-12-07T15:05:41.035Z,5.87
2022-12-07T15:08:28.022Z,3.53
2022-12-07T15:11:16.812Z,4.70
2022-12-07T15:14:10.883Z,3.30
2022-12-07T15:17:25.925Z,9.07
2022-12-07T15:20:10.056Z,3.70
2022-12-07T15:22:56.898Z,6.10
2022-12-07T15:25:44.584Z,5.57
2022-12-07T15:28:32.124Z,3.23
2022-12-07T15:31:53.426Z,4.93
2022-12-07T15:34:29.327Z,3.87
2022-12-07T15:37:17.790Z,2.87
2022-12-07T15:40:08.197Z,5.33
2022-12-07T15:43:39.891Z,5.97
2022-12-07T15:46:31.369Z,3.53
2022-12-07T15:49:19.742Z,3.53
2022-12-07T15:52:06.651Z,4.03
2022-12-07T15:54:53.572Z,2.67
2022-12-07T15:57:40.719Z,2.43
2022-12-07T16:00:27.584Z,2.93
2022-12-07T16:03:15.143Z,3.20
2022-12-07T16:06:02.141Z,2.90
2022-12-07T16:08:49.105Z,3.20
2022-12-07T16:11:36.081Z,4.87
2022-12-07T16:14:23.125Z,3.40
2022-12-07T16:17:10.453Z,4.67
2022-12-07T16:19:58.300Z,2.87
2022-12-07T16:22:45.189Z,3.07
2022-12-07T16:25:32.061Z,3.50
2022-12-07T16:28:19.021Z,3.03
2022-12-07T16:31:08.205Z,4.13
2022-12-07T16:33:56.650Z,2.40
2022-12-07T16:39:51.406Z,1.87
2022-12-07T16:42:38.267Z,1.67
2022-12-07T16:45:25.153Z,1.87
2022-12-07T16:48:12.046Z,3.17
2022-12-07T16:51:04.230Z,4.03
2022-12-07T16:53:53.526Z,1.43
2022-12-07T16:56:40.477Z,2.43
2022-12-07T16:59:27.431Z,2.60
2022-12-07T17:02:14.385Z,4.30
2022-12-07T17:05:01.843Z,1.77
2022-12-07T17:07:49.376Z,2.00
2022-12-07T17:10:38.775Z,3.97
2022-12-07T17:13:56.045Z,3.40
2022-12-07T17:16:43.048Z,2.97
2022-12-07T17:19:29.943Z,2.93
2022-12-07T17:22:16.963Z,2.77
2022-12-07T17:25:04.911Z,2.40
2022-12-07T17:27:52.542Z,1.97
2022-12-07T17:30:39.793Z,2.87
2022-12-07T17:33:26.721Z,3.10
2022-12-07T17:36:15.569Z,1.90
2022-12-07T17:39:06.966Z,2.73
2022-12-07T17:42:11.947Z,2.00
2022-12-07T17:45:03.227Z,4.53
2022-12-07T17:47:50.310Z,3.53
2022-12-07T17:50:57.325Z,2.80
2022-12-07T17:53:44.193Z,2.87
2022-12-07T17:56:31.041Z,3.73
2022-12-07T17:59:18.445Z,4.50
2022-12-07T18:02:06.550Z,4.43
2022-12-07T18:04:53.431Z,4.83
2022-12-07T18:07:40.368Z,6.83
2022-12-07T18:10:27.380Z,4.37
2022-12-07T18:13:32.631Z,5.40
2022-12-07T18:16:22.438Z,5.47
2022-12-07T18:19:12.633Z,5.77
2022-12-07T18:22:00.599Z,4.97
2022-12-07T18:24:47.523Z,6.77
2022-12-07T18:28:52.025Z,4.57
2022-12-07T18:31:38.971Z,8.23
2022-12-07T18:34:28.454Z,6.50
2022-12-07T18:37:15.322Z,6.33
2022-12-07T18:40:09.806Z,5.60
2022-12-07T18:42:56.882Z,7.53
2022-12-07T18:45:50.044Z,5.97
2022-12-07T18:48:39.678Z,5.87
2022-12-07T18:51:32.120Z,8.10
2022-12-07T18:54:19.744Z,9.47
2022-12-07T18:57:06.664Z,7.73
2022-12-07T18:59:53.575Z,6.57
2022-12-07T19:02:40.497Z,6.73
2022-12-07T19:05:28.075Z,6.80
2022-12-07T19:08:15.639Z,6.93
2022-12-07T19:11:24.233Z,7.00
2022-12-07T19:14:12.426Z,6.77
2022-12-07T19:17:01.943Z,7.63
2022-12-07T19:19:48.882Z,8.00
2022-12-07T19:22:35.851Z,7.93
2022-12-07T19:25:23.474Z,9.67
2022-12-07T19:28:10.344Z,7.90
2022-12-07T19:30:57.212Z,9.20
2022-12-07T19:33:44.109Z,9.20
2022-12-07T19:36:31.012Z,8.87
2022-12-07T19:39:18.225Z,6.80
2022-12-07T19:42:05.947Z,7.63
2022-12-07T19:44:52.812Z,9.70
2022-12-07T19:47:39.704Z,9.37
2022-12-07T19:50:26.647Z,7.17
2022-12-07T19:53:13.536Z,7.37
2022-12-07T19:56:01.399Z,8.13
2022-12-07T19:58:49.080Z,7.47
2022-12-07T20:01:37.128Z,7.50
2022-12-07T20:04:26.271Z,12.27
2022-12-07T20:07:13.363Z,8.27
2022-12-07T20:10:00.278Z,8.40
2022-12-07T20:13:05.196Z,10.90
2022-12-07T20:15:58.261Z,8.57
2022-12-07T20:18:59.548Z,8.37
2022-12-07T20:21:46.942Z,7.57
2022-12-07T20:24:35.269Z,7.77
2022-12-07T20:27:22.194Z,9.57
2022-12-07T20:30:09.685Z,8.10
2022-12-07T20:32:57.754Z,9.27
2022-12-07T20:35:44.804Z,8.17
2022-12-07T20:38:32.535Z,11.17
2022-12-07T20:41:38.141Z,9.87
2022-12-07T20:45:43.058Z,9.47
2022-12-07T20:48:30.861Z,7.50
2022-12-07T20:51:17.880Z,9.70
2022-12-07T20:54:05.428Z,9.23
2022-12-07T20:57:19.843Z,7.63
2022-12-07T21:00:08.369Z,11.63
2022-12-07T21:02:56.344Z,11.77
2022-12-07T21:05:50.394Z,8.67
2022-12-07T21:08:37.747Z,8.73
2022-12-07T21:11:28.763Z,8.90
2022-12-07T21:14:15.922Z,7.93
2022-12-07T21:17:02.887Z,9.83
2022-12-07T21:19:49.738Z,8.50
2022-12-07T21:22:37.310Z,6.67
2022-12-07T21:25:24.224Z,9.03
2022-12-07T21:28:11.103Z,5.60
2022-12-07T21:31:12.956Z,4.63
2022-12-07T21:34:02.122Z,4.23
2022-12-07T21:36:49.256Z,4.50
2022-12-07T21:39:36.860Z,3.70
2022-12-07T21:42:24.853Z,4.07
2022-12-07T21:45:11.791Z,5.83
2022-12-07T21:47:58.776Z,6.43
2022-12-07T21:50:46.440Z,7.13
2022-12-07T21:53:33.530Z,8.67
2022-12-07T21:56:24.136Z,7.97
2022-12-07T21:59:13.322Z,7.47
2022-12-07T22:02:00.776Z,7.87
2022-12-07T22:04:47.968Z,8.03
2022-12-07T22:07:34.917Z,8.00
2022-12-07T22:10:27.455Z,6.87
2022-12-07T22:13:15.221Z,7.57
2022-12-07T22:16:02.643Z,8.00
2022-12-07T22:18:49.634Z,10.50
2022-12-07T22:21:36.541Z,10.57
2022-12-07T22:24:23.851Z,8.67
2022-12-07T22:27:10.885Z,8.23
2022-12-07T22:29:58.617Z,8.23
2022-12-07T22:32:48.711Z,8.37
2022-12-07T22:35:36.064Z,9.63
2022-12-07T22:38:22.985Z,8.90
2022-12-07T22:41:11.794Z,9.20
2022-12-07T22:43:59.755Z,8.40
2022-12-07T22:46:47.586Z,8.50
2022-12-07T22:49:34.599Z,9.70
2022-12-07T22:52:21.445Z,8.07
2022-12-07T22:55:10.734Z,8.57
2022-12-07T22:57:57.603Z,8.83
2022-12-07T23:00:45.179Z,11.50
2022-12-07T23:03:33.560Z,8.13
2022-12-07T23:06:24.081Z,8.43
2022-12-07T23:09:12.474Z,8.40
2022-12-07T23:12:17.664Z,8.20
2022-12-07T23:15:05.850Z,13.00
2022-12-07T23:17:52.928Z,8.67
2022-12-07T23:20:40.450Z,9.73
2022-12-07T23:23:27.629Z,8.37
2022-12-07T23:26:14.513Z,10.23
2022-12-07T23:29:01.409Z,7.40
2022-12-07T23:31:49.159Z,7.23
2022-12-07T23:34:36.257Z,7.20
2022-12-07T23:37:23.781Z,8.47
2022-12-07T23:40:10.805Z,7.57
2022-12-07T23:42:57.682Z,7.63
2022-12-07T23:45:46.014Z,6.77
2022-12-07T23:48:34.218Z,8.47
2022-12-07T23:51:21.593Z,6.17
2022-12-07T23:54:14.142Z,7.63
2022-12-07T23:57:01.042Z,6.27
2022-12-07T23:59:47.926Z,6.33
